createdAt,value
2019-03-24T00:04:51.459Z,50.50
2019-03-24T00:10:00.347Z,50.00
2019-03-24T00:15:08.707Z,48.87
2019-03-24T00:20:18.577Z,51.00
2019-03-24T00:25:22.957Z,49.00
2019-03-24T00:30:31.789Z,47.00
2019-03-24T00:35:36.152Z,51.25
2019-03-24T00:40:44.972Z,52.75
2019-03-24T00:45:52.922Z,60.40
2019-03-24T00:51:01.820Z,57.62
2019-03-24T00:56:06.314Z,52.25
2019-03-24T01:01:15.713Z,51.00
2019-03-24T01:06:22.746Z,50.33
2019-03-24T01:11:27.229Z,56.25
2019-03-24T01:16:35.129Z,59.00
2019-03-24T01:21:43.336Z,68.00
2019-03-24T01:26:52.363Z,62.30
2019-03-24T01:31:57.232Z,60.75
2019-03-24T01:37:04.763Z,57.00
2019-03-24T01:42:11.015Z,56.00
2019-03-24T01:47:18.600Z,56.56
2019-03-24T01:52:28.511Z,64.62
2019-03-24T01:57:31.568Z,63.00
2019-03-24T02:02:34.867Z,68.00
2019-03-24T02:07:45.601Z,66.78
2019-03-24T02:12:55.306Z,66.67
2019-03-24T02:18:03.469Z,72.44
2019-03-24T02:23:14.102Z,73.80
2019-03-24T02:28:21.385Z,76.11
2019-03-24T02:33:32.030Z,77.44
2019-03-24T02:38:41.767Z,72.00
2019-03-24T02:43:53.056Z,79.90
2019-03-24T02:49:02.904Z,79.11
2019-03-24T02:54:06.640Z,79.00
2019-03-24T02:59:12.195Z,77.71
2019-03-24T03:04:20.735Z,83.10
2019-03-24T03:09:25.996Z,80.86
2019-03-24T03:14:36.329Z,84.13
2019-03-24T03:19:40.049Z,83.40
2019-03-24T03:24:52.243Z,90.36
2019-03-24T03:29:55.462Z,89.00
2019-03-24T03:35:08.126Z,92.18
2019-03-24T03:40:14.506Z,91.63
2019-03-24T03:45:26.162Z,87.00
2019-03-24T03:50:38.719Z,84.40
2019-03-24T03:55:44.303Z,79.57
2019-03-24T04:00:47.969Z,83.00
2019-03-24T04:05:59.324Z,79.36
2019-03-24T04:11:04.761Z,69.00
2019-03-24T04:16:08.661Z,68.00
2019-03-24T04:21:19.262Z,63.22
2019-03-24T04:26:28.623Z,63.00
2019-03-24T04:31:37.316Z,63.00
2019-03-24T04:36:46.037Z,62.62
2019-03-24T04:41:55.729Z,62.00
2019-03-24T04:47:05.517Z,62.00
2019-03-24T04:52:13.479Z,58.33
2019-03-24T04:57:18.942Z,62.25
2019-03-24T05:02:27.082Z,60.11
2019-03-24T05:07:34.546Z,54.00
2019-03-24T05:12:38.895Z,53.00
2019-03-24T05:17:46.930Z,52.33
2019-03-24T05:22:53.984Z,40.33
2019-03-24T05:28:01.743Z,37.25
2019-03-24T05:33:06.977Z,40.25
2019-03-24T05:38:12.844Z,33.13
2019-03-24T05:43:17.875Z,42.75
2019-03-24T05:48:24.027Z,35.00
2019-03-24T05:53:28.446Z,38.00
2019-03-24T05:58:34.599Z,42.62
2019-03-24T06:03:38.127Z,37.50
2019-03-24T06:08:44.273Z,31.00
2019-03-24T06:13:51.943Z,32.00
2019-03-24T06:18:56.794Z,34.00
2019-03-24T06:24:00.282Z,40.33
2019-03-24T06:29:07.756Z,33.43
2019-03-24T06:34:15.146Z,33.13
2019-03-24T06:39:20.004Z,33.50
2019-03-24T06:44:24.158Z,32.00
2019-03-24T06:49:32.451Z,34.38
2019-03-24T06:54:36.619Z,32.00
2019-03-24T06:59:43.104Z,30.00
2019-03-24T07:04:47.811Z,31.50
2019-03-24T07:09:51.608Z,31.00
2019-03-24T07:14:59.915Z,31.25
2019-03-24T07:20:04.942Z,30.00
2019-03-24T07:25:12.315Z,32.00
2019-03-24T07:30:20.416Z,31.87
2019-03-24T07:35:25.173Z,33.00
2019-03-24T07:40:33.479Z,31.00
2019-03-24T07:45:41.342Z,30.00
2019-03-24T07:50:50.637Z,29.25
2019-03-24T07:55:55.803Z,32.00
2019-03-24T08:00:59.110Z,30.00
2019-03-24T08:06:03.389Z,34.00
2019-03-24T08:11:10.725Z,31.37
2019-03-24T08:16:14.723Z,32.75
2019-03-24T08:21:23.155Z,33.00
2019-03-24T08:26:27.971Z,33.00
2019-03-24T08:31:36.202Z,31.87
2019-03-24T08:36:42.042Z,32.50
2019-03-24T08:41:46.375Z,29.00
2019-03-24T08:46:53.123Z,32.56
2019-03-24T08:51:59.934Z,31.00
2019-03-24T08:57:04.940Z,31.25
2019-03-24T09:02:12.580Z,34.14
2019-03-24T09:07:19.906Z,29.00
2019-03-24T09:12:28.272Z,32.43
2019-03-24T09:17:35.821Z,29.75
2019-03-24T09:22:40.658Z,30.00
2019-03-24T09:27:44.185Z,26.33
2019-03-24T09:32:50.259Z,21.57
2019-03-24T09:37:54.671Z,27.33
2019-03-24T09:43:03.905Z,22.37
2019-03-24T09:48:08.444Z,26.75
2019-03-24T09:53:13.182Z,29.75
2019-03-24T09:58:17.717Z,30.00
2019-03-24T10:03:22.226Z,31.50
2019-03-24T10:08:30.806Z,25.00
2019-03-24T10:13:38.581Z,28.38
2019-03-24T10:18:48.014Z,29.50
2019-03-24T10:23:52.898Z,27.50
2019-03-24T10:28:59.687Z,30.11
2019-03-24T10:34:03.946Z,30.00
2019-03-24T10:39:07.464Z,31.00
2019-03-24T10:44:11.037Z,30.00
2019-03-24T10:49:24.844Z,29.37
2019-03-24T10:54:28.386Z,29.50
2019-03-24T10:59:34.426Z,25.37
2019-03-24T11:04:42.815Z,28.75
2019-03-24T11:09:48.869Z,28.38
2019-03-24T11:14:59.067Z,27.00
2019-03-24T11:20:08.415Z,27.25
2019-03-24T11:25:13.593Z,29.00
2019-03-24T11:30:19.483Z,33.38
2019-03-24T11:35:28.796Z,27.92
2019-03-24T11:40:37.462Z,28.38
2019-03-24T11:45:41.909Z,26.00
2019-03-24T11:50:45.514Z,25.67
2019-03-24T11:55:49.782Z,27.25
2019-03-24T12:00:55.086Z,30.00
2019-03-24T12:06:14.023Z,24.63
2019-03-24T12:11:13.514Z,22.25
2019-03-24T12:16:19.817Z,25.75
2019-03-24T12:21:26.699Z,26.87
2019-03-24T12:26:30.247Z,24.75
2019-03-24T12:31:34.932Z,25.00
2019-03-24T12:36:43.706Z,26.12
2019-03-24T12:41:49.099Z,28.00
2019-03-24T12:46:57.946Z,25.33
2019-03-24T12:52:04.260Z,26.25
2019-03-24T12:57:07.875Z,26.00
2019-03-24T13:02:12.259Z,23.00
2019-03-24T13:07:15.967Z,26.00
2019-03-24T13:12:22.118Z,24.25
2019-03-24T13:17:25.817Z,26.00
2019-03-24T13:22:30.251Z,25.50
2019-03-24T13:27:33.828Z,23.33
2019-03-24T13:32:42.351Z,29.75
2019-03-24T13:37:48.383Z,28.12
2019-03-24T13:42:52.724Z,25.00
2019-03-24T13:47:55.993Z,24.00
2019-03-24T13:52:59.958Z,21.25
2019-03-24T13:58:04.035Z,24.00
2019-03-24T14:03:09.947Z,24.12
2019-03-24T14:08:16.690Z,22.62
2019-03-24T14:13:21.759Z,24.75
2019-03-24T14:18:32.719Z,25.00
2019-03-24T14:23:36.835Z,22.67
2019-03-24T14:28:41.003Z,21.00
2019-03-24T14:33:50.134Z,26.50
2019-03-24T14:38:54.287Z,24.33
2019-03-24T14:43:57.748Z,25.00
2019-03-24T14:49:06.279Z,29.37
2019-03-24T14:54:13.745Z,25.43
2019-03-24T14:59:18.604Z,25.50
2019-03-24T15:04:21.959Z,22.67
2019-03-24T15:09:27.838Z,21.00
2019-03-24T15:14:33.455Z,30.75
2019-03-24T15:19:39.749Z,30.37
2019-03-24T15:24:46.930Z,25.12
2019-03-24T15:29:53.255Z,30.29
2019-03-24T15:34:57.108Z,28.75
2019-03-24T15:40:01.934Z,34.80
2019-03-24T15:45:13.170Z,34.86
2019-03-24T15:50:16.567Z,40.33
2019-03-24T15:55:20.814Z,30.80
2019-03-24T16:00:41.944Z,32.50
2019-03-24T16:05:51.498Z,36.67
2019-03-24T16:10:58.255Z,22.00
2019-03-24T16:16:06.590Z,37.27
2019-03-24T16:21:12.083Z,33.20
2019-03-24T16:26:20.078Z,25.75
2019-03-24T16:31:24.489Z,30.50
2019-03-24T16:36:28.080Z,22.00
2019-03-24T16:41:34.308Z,31.37
2019-03-24T16:46:41.126Z,23.62
2019-03-24T16:51:44.488Z,26.33
2019-03-24T16:56:50.405Z,27.00
2019-03-24T17:01:57.449Z,25.00
2019-03-24T17:07:03.995Z,27.00
2019-03-24T17:12:08.890Z,25.00
2019-03-24T17:17:14.522Z,26.57
2019-03-24T17:22:22.655Z,30.50
2019-03-24T17:27:31.271Z,28.62
2019-03-24T17:32:38.990Z,34.88
2019-03-24T17:37:45.904Z,28.62
2019-03-24T17:42:49.373Z,45.00
2019-03-24T17:47:53.363Z,31.60
2019-03-24T17:52:57.395Z,35.00
2019-03-24T17:58:02.607Z,31.75
2019-03-24T18:03:14.622Z,34.64
2019-03-24T18:08:18.631Z,45.50
2019-03-24T18:13:23.995Z,42.57
2019-03-24T18:18:31.767Z,41.00
2019-03-24T18:23:41.355Z,45.20
2019-03-24T18:28:49.214Z,42.75
2019-03-24T18:33:57.839Z,40.75
2019-03-24T18:39:07.322Z,45.50
2019-03-24T18:44:12.195Z,40.33
2019-03-24T18:49:19.212Z,36.90
2019-03-24T18:54:28.496Z,38.55
2019-03-24T18:59:35.447Z,44.00
2019-03-24T19:04:39.707Z,39.00
2019-03-24T19:09:51.351Z,48.56
2019-03-24T19:14:57.360Z,39.00
2019-03-24T19:20:05.404Z,44.88
2019-03-24T19:25:11.220Z,43.29
2019-03-24T19:30:19.646Z,43.00
2019-03-24T19:35:23.710Z,41.67
2019-03-24T19:40:32.992Z,41.13
2019-03-24T19:45:40.135Z,45.50
2019-03-24T19:50:44.200Z,46.20
2019-03-24T19:55:52.662Z,47.13
2019-03-24T20:01:01.094Z,49.63
2019-03-24T20:06:07.244Z,46.13
2019-03-24T20:11:12.484Z,53.00
2019-03-24T20:16:17.594Z,48.00
2019-03-24T20:21:32.229Z,54.36
2019-03-24T20:26:38.085Z,54.29
2019-03-24T20:31:48.357Z,54.10
2019-03-24T20:36:54.022Z,57.00
2019-03-24T20:41:58.691Z,52.00
2019-03-24T20:47:08.477Z,50.91
2019-03-24T20:52:19.444Z,57.23
2019-03-24T20:57:25.351Z,49.71
2019-03-24T21:02:32.116Z,50.00
2019-03-24T21:07:40.412Z,48.86
2019-03-24T21:12:45.299Z,46.00
2019-03-24T21:17:49.149Z,48.00
2019-03-24T21:22:57.935Z,49.13
2019-03-24T21:28:04.411Z,49.13
2019-03-24T21:33:08.394Z,48.00
2019-03-24T21:38:14.704Z,47.38
2019-03-24T21:45:28.575Z,41.00
2019-03-24T22:09:49.264Z,15.00
2019-03-24T22:14:55.140Z,15.00
2019-03-24T22:20:00.350Z,10.83
2019-03-24T22:25:07.031Z,13.71
2019-03-24T22:30:13.962Z,12.29
2019-03-24T22:35:17.785Z,10.50
2019-03-24T22:40:23.430Z,10.00
2019-03-24T22:45:29.829Z,11.00
2019-03-24T22:50:34.656Z,11.14
2019-03-24T22:55:41.248Z,12.00
2019-03-24T23:00:45.324Z,10.00
2019-03-24T23:05:52.796Z,11.14
2019-03-24T23:10:57.572Z,9.71
2019-03-24T23:16:04.079Z,14.57
2019-03-24T23:21:12.407Z,10.00
2019-03-24T23:26:19.037Z,14.00
2019-03-24T23:31:24.835Z,12.86
2019-03-24T23:36:31.413Z,13.29
2019-03-24T23:41:37.973Z,12.57
2019-03-24T23:46:42.755Z,12.29
2019-03-24T23:51:50.941Z,19.00
2019-03-24T23:56:57.398Z,14.87
